Time;durP1;ratioP1;P1;durP2;ratioP2;P2;SDS_P1;SDS_P2;PMS_P1;PMS_P2;Temp;Humidity;BMP_temperature;BMP_pressure;BME280_temperature;BME280_humidity;BME280_pressure;Samples;Min_cycle;Max_cycle;Signal;HPM_P1;HPM_P2
2022/01/28 00:00:36;;;;;;;27.33;10.25;;;4.10;99.90;;;;;;5009444;28;20049;-77
2022/01/28 00:03:08;;;;;;;21.58;8.57;;;4.00;99.90;;;;;;5008341;28;20292;-78
2022/01/28 00:05:36;;;;;;;25.98;10.18;;;4.10;99.90;;;;;;5008318;28;20064;-75
2022/01/28 00:08:03;;;;;;;26.52;9.85;;;4.10;99.90;;;;;;4992280;28;20096;-76
2022/01/28 00:10:30;;;;;;;27.17;9.70;;;4.00;99.90;;;;;;5008513;28;20220;-77
2022/01/28 00:38:02;;;;;;;21.00;9.30;;;3.50;99.90;;;;;;5010164;28;20084;-79
2022/01/28 00:40:29;;;;;;;23.20;9.50;;;3.60;99.90;;;;;;5010296;28;20022;-77
2022/01/28 00:42:55;;;;;;;19.60;9.27;;;3.70;99.90;;;;;;5005787;28;20041;-78
2022/01/28 00:45:22;;;;;;;25.92;10.60;;;3.70;99.90;;;;;;4988147;28;20205;-77
2022/01/28 00:47:48;;;;;;;36.90;17.52;;;3.60;99.90;;;;;;4987573;28;20053;-78
2022/01/28 00:50:15;;;;;;;24.35;9.75;;;3.50;99.90;;;;;;5004546;28;20042;-77
2022/01/28 00:52:41;;;;;;;27.08;10.00;;;3.40;99.90;;;;;;4987409;28;20049;-76
2022/01/28 00:55:07;;;;;;;26.75;10.85;;;3.30;99.90;;;;;;4987941;28;20023;-77
2022/01/28 00:57:32;;;;;;;32.95;11.07;;;3.30;99.90;;;;;;4987823;28;20030;-79
2022/01/28 00:59:58;;;;;;;21.05;9.38;;;3.40;99.90;;;;;;4971748;28;20022;-76
2022/01/28 01:02:24;;;;;;;24.25;10.18;;;3.40;99.90;;;;;;5004122;28;20054;-77
2022/01/28 01:04:50;;;;;;;21.42;9.55;;;3.40;99.90;;;;;;5013046;28;20029;-73
2022/01/28 01:07:16;;;;;;;18.65;8.82;;;3.30;99.90;;;;;;5016546;28;20372;-76
2022/01/28 01:09:43;;;;;;;24.13;9.77;;;3.30;99.90;;;;;;4999188;28;20030;-75
2022/01/28 01:12:10;;;;;;;23.02;9.45;;;3.30;99.90;;;;;;5015097;28;20082;-75
2022/01/28 01:14:37;;;;;;;19.33;8.35;;;3.30;99.90;;;;;;4997648;28;20029;-77
2022/01/28 01:17:18;;;;;;;20.13;9.98;;;3.30;99.90;;;;;;4995934;28;20022;-76
2022/01/28 01:19:48;;;;;;;17.70;8.20;;;3.40;99.90;;;;;;4980262;28;20033;-77
2022/01/28 01:22:14;;;;;;;21.48;10.05;;;3.30;99.90;;;;;;4989426;28;20023;-76
2022/01/28 01:24:49;;;;;;;16.30;8.55;;;3.30;99.90;;;;;;4987842;28;20102;-78
2022/01/28 01:27:16;;;;;;;21.95;8.07;;;3.30;99.90;;;;;;5002038;28;20036;-76
2022/01/28 01:29:44;;;;;;;23.73;10.10;;;3.20;99.90;;;;;;5004755;28;20022;-77
2022/01/28 01:32:14;;;;;;;22.40;9.18;;;3.20;99.90;;;;;;5004647;28;20026;-78
2022/01/28 01:34:40;;;;;;;27.17;9.38;;;3.20;99.90;;;;;;4987363;28;20022;-76
2022/01/28 01:37:07;;;;;;;21.70;9.02;;;3.10;99.90;;;;;;5004637;28;20026;-77
2022/01/28 01:39:35;;;;;;;18.60;8.90;;;3.10;99.90;;;;;;5012240;28;20018;-76
2022/01/28 01:42:12;;;;;;;24.58;9.55;;;3.10;99.90;;;;;;5006835;28;20033;-76
2022/01/28 01:52:57;;;;;;;27.60;10.45;;;3.10;99.90;;;;;;5023014;28;20061;-76
2022/01/28 01:55:23;;;;;;;22.67;9.40;;;3.10;99.90;;;;;;5024372;28;20044;-76
2022/01/28 01:57:49;;;;;;;18.38;8.70;;;3.10;99.90;;;;;;5006533;28;20089;-77
2022/01/28 02:00:16;;;;;;;19.48;8.90;;;3.10;99.90;;;;;;4990093;28;20018;-76
2022/01/28 02:02:42;;;;;;;26.65;10.98;;;3.00;99.90;;;;;;5023959;28;20028;-77
2022/01/28 02:05:08;;;;;;;18.30;8.73;;;3.00;99.90;;;;;;5022519;28;20266;-77
2022/01/28 02:07:34;;;;;;;18.92;8.52;;;2.80;99.90;;;;;;5005734;28;20080;-76
2022/01/28 02:09:59;;;;;;;19.75;9.45;;;2.80;99.90;;;;;;5022570;28;20324;-78
2022/01/28 02:12:25;;;;;;;15.63;9.10;;;2.90;99.90;;;;;;5006017;28;20029;-78
2022/01/28 02:14:51;;;;;;;16.63;8.23;;;3.00;99.90;;;;;;5006053;28;20025;-77
2022/01/28 02:17:16;;;;;;;22.02;8.75;;;3.10;99.90;;;;;;5006248;28;20076;-75
2022/01/28 02:19:42;;;;;;;19.73;8.30;;;3.10;99.90;;;;;;5006377;28;20053;-77
2022/01/28 02:22:08;;;;;;;20.02;9.30;;;3.00;99.90;;;;;;5006432;28;20022;-76
2022/01/28 02:24:41;;;;;;;25.40;10.70;;;3.00;99.90;;;;;;4990083;28;20085;-77
2022/01/28 02:27:07;;;;;;;19.35;9.07;;;2.90;99.90;;;;;;5005839;28;20101;-77
2022/01/28 02:29:35;;;;;;;20.17;9.02;;;2.90;99.90;;;;;;5005277;28;20021;-76
2022/01/28 02:32:03;;;;;;;26.23;9.43;;;2.90;99.90;;;;;;5005932;28;20030;-77
2022/01/28 02:34:29;;;;;;;17.42;8.98;;;2.90;99.90;;;;;;5006023;28;20371;-76
2022/01/28 02:36:56;;;;;;;15.43;8.05;;;2.80;99.90;;;;;;4998248;28;20021;-76
2022/01/28 02:39:21;;;;;;;18.95;8.40;;;2.80;99.90;;;;;;5002482;28;20030;-77
2022/01/28 02:41:51;;;;;;;18.00;8.90;;;2.80;99.90;;;;;;4986868;28;20072;-77
2022/01/28 02:44:23;;;;;;;20.10;8.98;;;2.80;99.90;;;;;;5003504;28;20132;-77
2022/01/28 02:47:00;;;;;;;20.42;10.18;;;2.70;99.90;;;;;;4993196;28;20045;-78
2022/01/28 02:49:28;;;;;;;24.02;10.05;;;2.70;99.90;;;;;;5006235;28;20075;-77
2022/01/28 02:51:57;;;;;;;20.35;9.85;;;2.60;99.90;;;;;;5006227;28;20026;-77
2022/01/28 02:54:23;;;;;;;18.45;9.20;;;2.60;99.90;;;;;;4986782;28;20308;-78
2022/01/28 02:56:51;;;;;;;19.15;8.43;;;2.70;99.90;;;;;;4986614;28;20022;-76
2022/01/28 02:59:18;;;;;;;17.60;8.57;;;2.70;99.90;;;;;;4986752;28;20066;-77
2022/01/28 03:01:43;;;;;;;16.60;8.02;;;2.60;99.90;;;;;;4970131;28;20054;-75
2022/01/28 03:04:13;;;;;;;18.83;8.35;;;2.60;99.90;;;;;;4986856;28;20054;-75
2022/01/28 03:06:39;;;;;;;19.77;9.20;;;2.50;99.90;;;;;;4987657;28;20042;-76
2022/01/28 03:09:15;;;;;;;23.58;8.73;;;2.40;99.90;;;;;;4986935;28;20210;-77
2022/01/28 03:11:45;;;;;;;16.00;7.72;;;2.40;99.90;;;;;;4986796;28;20093;-77
2022/01/28 03:14:19;;;;;;;23.02;8.13;;;2.50;99.90;;;;;;4986195;28;20328;-77
2022/01/28 03:19:52;;;;;;;20.17;8.07;;;2.60;99.90;;;;;;4973345;28;20022;-78
2022/01/28 03:22:18;;;;;;;17.23;8.25;;;2.60;99.90;;;;;;4986866;28;20027;-75
2022/01/28 03:24:47;;;;;;;16.75;7.97;;;2.60;99.90;;;;;;4986679;28;20107;-76
2022/01/28 03:27:20;;;;;;;18.98;7.53;;;2.60;99.90;;;;;;4985529;28;20023;-77
2022/01/28 03:29:46;;;;;;;27.48;8.35;;;2.60;99.90;;;;;;4986044;28;20329;-76
2022/01/28 03:32:11;;;;;;;23.48;10.45;;;2.60;99.90;;;;;;4987548;28;20022;-78
2022/01/28 03:34:37;;;;;;;18.45;8.18;;;2.60;99.90;;;;;;4970336;28;20033;-75
2022/01/28 03:37:05;;;;;;;20.88;7.13;;;2.50;99.90;;;;;;4987580;28;20082;-77
2022/01/28 03:39:30;;;;;;;17.98;7.72;;;2.50;99.90;;;;;;4994547;28;20030;-78
2022/01/28 03:41:56;;;;;;;16.33;8.52;;;2.50;99.90;;;;;;5006664;28;20026;-77
2022/01/28 03:44:22;;;;;;;19.88;9.07;;;2.40;99.90;;;;;;5006124;28;20336;-78
2022/01/28 03:46:47;;;;;;;18.60;8.77;;;2.40;99.90;;;;;;5006910;28;20057;-78
2022/01/28 03:49:13;;;;;;;17.00;8.60;;;2.40;99.90;;;;;;4988993;28;20332;-75
2022/01/28 03:51:39;;;;;;;18.25;8.93;;;2.40;99.90;;;;;;4973014;28;20202;-77
2022/01/28 03:54:05;;;;;;;21.42;8.77;;;2.40;99.90;;;;;;4990366;28;20332;-76
2022/01/28 03:56:30;;;;;;;16.67;8.13;;;2.40;99.90;;;;;;5026430;28;20093;-76
2022/01/28 03:58:56;;;;;;;17.30;8.15;;;2.40;99.90;;;;;;5024954;28;20038;-77
2022/01/28 04:01:28;;;;;;;17.48;9.38;;;2.50;99.90;;;;;;5008751;28;20026;-78
2022/01/28 04:12:10;;;;;;;17.08;9.20;;;2.40;99.90;;;;;;4997537;28;20223;-76
2022/01/28 04:14:45;;;;;;;22.60;9.13;;;2.30;99.90;;;;;;4991418;28;20017;-76
2022/01/28 04:17:25;;;;;;;23.63;10.23;;;2.30;99.90;;;;;;5009680;28;20240;-76
2022/01/28 04:19:52;;;;;;;23.00;9.23;;;2.30;99.90;;;;;;5025507;28;20085;-76
2022/01/28 04:22:19;;;;;;;20.67;9.13;;;2.30;99.90;;;;;;5008453;28;20268;-77
2022/01/28 04:24:45;;;;;;;15.32;8.48;;;2.30;99.90;;;;;;5008307;28;20219;-78
2022/01/28 04:27:11;;;;;;;22.15;9.70;;;2.30;99.90;;;;;;5025774;28;20026;-75
2022/01/28 04:29:37;;;;;;;19.85;9.52;;;2.30;99.90;;;;;;5006552;28;20026;-77
2022/01/28 04:32:03;;;;;;;19.83;9.40;;;2.20;99.90;;;;;;5008209;28;20077;-76
2022/01/28 04:34:29;;;;;;;17.35;8.55;;;2.30;99.90;;;;;;5025419;28;20029;-75
2022/01/28 04:40:05;;;;;;;29.50;9.68;;;2.10;99.90;;;;;;5004599;28;20025;-77
2022/01/28 04:45:23;;;;;;;21.50;8.65;;;2.00;99.90;;;;;;5004658;28;20042;-75
2022/01/28 04:48:08;;;;;;;21.45;8.77;;;2.00;99.90;;;;;;5021366;28;20037;-77
2022/01/28 04:50:46;;;;;;;20.88;8.98;;;1.90;99.90;;;;;;5019570;28;20037;-73
2022/01/28 04:53:32;;;;;;;22.10;9.32;;;1.90;99.90;;;;;;5010577;28;20037;-75
2022/01/28 04:56:10;;;;;;;19.42;8.88;;;1.80;99.90;;;;;;5001979;28;20029;-74
2022/01/28 04:59:08;;;;;;;17.30;8.40;;;1.90;99.90;;;;;;5015206;28;20081;-76
2022/01/28 05:01:44;;;;;;;16.15;7.95;;;1.90;99.90;;;;;;4985731;28;20094;-77
2022/01/28 05:10:45;;;;;;;21.13;8.95;;;2.00;99.90;;;;;;4989814;28;20041;-77
2022/01/28 05:12:53;;;;;;;21.13;9.10;;;1.90;99.90;;;;;;4989814;28;20046;-78
2022/01/28 05:24:05;;;;;;;17.83;8.98;;;1.80;99.90;;;;;;4990554;28;20034;-76
2022/01/28 05:26:35;;;;;;;17.15;8.77;;;1.80;99.90;;;;;;4990249;28;20018;-76
2022/01/28 05:28:57;;;;;;;22.65;9.20;;;1.80;99.90;;;;;;4988773;28;20029;-77
2022/01/28 05:31:23;;;;;;;18.38;8.27;;;1.90;99.90;;;;;;4971192;28;20045;-78
2022/01/28 05:33:49;;;;;;;15.07;7.93;;;1.90;99.90;;;;;;4955044;28;20026;-77
2022/01/28 05:36:15;;;;;;;17.20;8.25;;;1.90;99.90;;;;;;5004974;28;20086;-77
2022/01/28 05:38:42;;;;;;;23.20;10.40;;;1.90;99.90;;;;;;4987096;28;20038;-77
2022/01/28 05:41:07;;;;;;;25.42;12.35;;;1.80;99.90;;;;;;4971474;28;20022;-76
2022/01/28 05:43:33;;;;;;;24.40;11.15;;;1.80;99.90;;;;;;5004341;28;20126;-76
2022/01/28 05:45:59;;;;;;;18.60;9.25;;;1.80;99.90;;;;;;5004599;28;20089;-75
2022/01/28 05:48:25;;;;;;;22.30;8.73;;;1.80;99.90;;;;;;5003351;28;20041;-77
2022/01/28 05:50:50;;;;;;;20.65;10.50;;;1.80;99.90;;;;;;5004315;28;20292;-78
2022/01/28 05:53:16;;;;;;;17.65;9.30;;;1.80;99.90;;;;;;4998053;28;20104;-77
2022/01/28 05:55:42;;;;;;;19.85;9.52;;;1.70;99.90;;;;;;5024422;28;20033;-77
2022/01/28 05:58:08;;;;;;;18.83;9.50;;;1.70;99.90;;;;;;5006695;28;20025;-77
2022/01/28 06:00:33;;;;;;;20.83;8.85;;;1.70;99.90;;;;;;5006589;28;20033;-77
2022/01/28 06:02:59;;;;;;;20.85;8.77;;;1.70;99.90;;;;;;4990431;28;20018;-75
2022/01/28 06:05:30;;;;;;;19.90;9.05;;;1.70;99.90;;;;;;5006552;28;20102;-77
2022/01/28 06:07:57;;;;;;;19.42;9.20;;;1.70;99.90;;;;;;4990982;28;20030;-76
2022/01/28 06:10:23;;;;;;;19.95;9.18;;;1.70;99.90;;;;;;5023724;28;20065;-78
2022/01/28 06:12:48;;;;;;;15.45;8.90;;;1.60;99.90;;;;;;5006275;28;20022;-76
2022/01/28 06:15:14;;;;;;;20.58;9.43;;;1.60;99.90;;;;;;5005950;28;20044;-77
2022/01/28 06:17:40;;;;;;;20.15;9.07;;;1.60;99.90;;;;;;5005906;28;20190;-75
2022/01/28 06:20:09;;;;;;;22.58;9.52;;;1.50;99.90;;;;;;5023963;28;20028;-75
2022/01/28 06:22:39;;;;;;;21.58;9.75;;;1.50;99.90;;;;;;5007926;28;20063;-76
2022/01/28 06:25:06;;;;;;;19.40;10.50;;;1.40;99.90;;;;;;5007561;28;20041;-76
2022/01/28 06:27:32;;;;;;;24.85;10.07;;;1.40;99.90;;;;;;5006321;28;20029;-77
2022/01/28 06:29:58;;;;;;;20.50;9.85;;;1.40;99.90;;;;;;5005885;28;20046;-79
2022/01/28 06:32:23;;;;;;;19.98;9.10;;;1.40;99.90;;;;;;5023054;28;20116;-77
2022/01/28 06:34:49;;;;;;;19.38;9.20;;;1.50;99.90;;;;;;5023211;28;20026;-76
2022/01/28 06:37:14;;;;;;;19.10;9.93;;;1.50;99.90;;;;;;5006361;28;20092;-77
2022/01/28 06:39:40;;;;;;;23.27;10.88;;;1.30;99.90;;;;;;5003064;28;20030;-75
2022/01/28 06:42:06;;;;;;;18.23;10.10;;;1.30;99.90;;;;;;5002020;28;20305;-75
2022/01/28 06:44:32;;;;;;;18.67;9.45;;;1.40;99.90;;;;;;5003789;28;20053;-75
2022/01/28 06:46:58;;;;;;;19.27;10.02;;;1.40;99.90;;;;;;5013756;28;20480;-76
2022/01/28 06:49:23;;;;;;;21.88;9.95;;;1.40;99.90;;;;;;5005685;28;20335;-78
2022/01/28 06:51:49;;;;;;;20.05;10.18;;;1.40;99.90;;;;;;5022944;28;20132;-76
2022/01/28 06:54:15;;;;;;;23.58;11.13;;;1.30;99.90;;;;;;4987529;28;20109;-78
2022/01/28 06:56:40;;;;;;;19.50;9.40;;;1.30;99.90;;;;;;4986704;28;20101;-75
2022/01/28 06:59:07;;;;;;;16.67;9.30;;;1.30;99.90;;;;;;5004060;28;20033;-76
2022/01/28 07:01:32;;;;;;;24.27;9.10;;;1.40;99.90;;;;;;5004289;28;20318;-76
2022/01/28 07:04:00;;;;;;;29.13;11.38;;;1.40;99.90;;;;;;4986455;28;20033;-75
2022/01/28 07:06:26;;;;;;;26.80;12.13;;;1.40;99.90;;;;;;5003625;28;20325;-77
2022/01/28 07:08:52;;;;;;;24.48;12.88;;;1.40;99.90;;;;;;5003027;28;20030;-78
2022/01/28 07:11:17;;;;;;;20.17;9.60;;;1.40;99.90;;;;;;5003727;28;20399;-76
2022/01/28 07:13:43;;;;;;;20.02;9.43;;;1.50;99.90;;;;;;4986472;28;20329;-78
2022/01/28 07:16:09;;;;;;;16.45;8.60;;;1.60;99.90;;;;;;5003451;28;20054;-77
2022/01/28 07:18:35;;;;;;;18.25;9.43;;;1.60;99.90;;;;;;5004005;28;20065;-76
2022/01/28 07:21:01;;;;;;;21.20;8.70;;;1.60;99.90;;;;;;4986491;28;20317;-76
2022/01/28 07:23:26;;;;;;;21.92;8.93;;;1.60;99.90;;;;;;5002441;28;20026;-75
2022/01/28 07:25:52;;;;;;;23.40;10.05;;;1.50;99.90;;;;;;5004503;28;20038;-77
2022/01/28 07:28:18;;;;;;;22.73;11.43;;;1.50;99.90;;;;;;4987034;28;20353;-76
2022/01/28 07:30:44;;;;;;;26.17;11.10;;;1.40;99.90;;;;;;4988202;28;20471;-77
2022/01/28 07:33:10;;;;;;;24.10;9.07;;;1.40;99.90;;;;;;4989161;28;20046;-75
2022/01/28 07:35:36;;;;;;;21.25;9.65;;;1.40;99.90;;;;;;4989719;28;20253;-75
2022/01/28 07:38:03;;;;;;;33.63;13.77;;;1.50;99.90;;;;;;5006690;28;20301;-75
2022/01/28 07:40:29;;;;;;;32.00;11.90;;;1.50;99.90;;;;;;4986153;28;20023;-78
2022/01/28 07:42:54;;;;;;;24.60;11.63;;;1.50;99.90;;;;;;4987177;28;20328;-76
2022/01/28 07:45:20;;;;;;;24.15;10.07;;;1.50;99.90;;;;;;4969514;28;20034;-77
2022/01/28 07:47:46;;;;;;;23.60;11.20;;;1.50;99.90;;;;;;5003486;28;20022;-78
2022/01/28 07:50:15;;;;;;;25.98;10.60;;;1.60;99.90;;;;;;5006579;28;20034;-80
2022/01/28 07:52:41;;;;;;;22.52;10.82;;;1.70;99.90;;;;;;4995239;28;20076;-77
2022/01/28 07:55:11;;;;;;;23.17;10.80;;;1.80;99.90;;;;;;5008535;28;20394;-76
2022/01/28 07:57:37;;;;;;;21.08;10.07;;;1.90;99.90;;;;;;5026149;28;20057;-75
2022/01/28 08:00:05;;;;;;;21.05;9.45;;;2.10;99.90;;;;;;5026332;28;20018;-74
2022/01/28 08:02:30;;;;;;;26.25;10.88;;;2.30;99.90;;;;;;5025789;28;20037;-74
2022/01/28 08:04:56;;;;;;;21.73;10.88;;;2.30;99.90;;;;;;4988635;28;20022;-75
2022/01/28 08:07:22;;;;;;;26.27;10.90;;;2.50;99.90;;;;;;5012576;28;20027;-73
2022/01/28 08:09:48;;;;;;;46.22;12.18;;;2.70;99.90;;;;;;5024441;28;20021;-74
2022/01/28 08:12:14;;;;;;;29.45;11.02;;;2.80;99.90;;;;;;5045404;28;20077;-74
2022/01/28 08:14:39;;;;;;;27.52;13.57;;;3.00;99.90;;;;;;5026773;28;20022;-75
2022/01/28 08:17:05;;;;;;;24.75;10.05;;;3.10;99.90;;;;;;5023692;28;20041;-75
2022/01/28 08:19:31;;;;;;;18.95;10.48;;;3.20;99.90;;;;;;5023275;28;20316;-75
2022/01/28 08:21:57;;;;;;;20.33;10.52;;;3.30;99.90;;;;;;5006769;28;20309;-71
2022/01/28 08:24:23;;;;;;;22.88;10.68;;;3.40;99.90;;;;;;5012779;28;20083;-74
2022/01/28 08:26:49;;;;;;;24.23;10.18;;;3.40;99.90;;;;;;5021220;28;20216;-72
2022/01/28 08:29:14;;;;;;;23.50;11.73;;;3.50;99.90;;;;;;5027733;28;20030;-72
2022/01/28 08:31:41;;;;;;;22.13;10.48;;;3.60;99.90;;;;;;5038571;28;20044;-74
2022/01/28 08:34:06;;;;;;;19.08;10.63;;;3.60;99.90;;;;;;5035028;28;20021;-77
2022/01/28 08:36:33;;;;;;;25.70;10.57;;;3.60;99.90;;;;;;5003567;28;20078;-78
2022/01/28 08:38:59;;;;;;;21.60;11.50;;;3.50;99.90;;;;;;5016238;28;20034;-79
2022/01/28 08:41:26;;;;;;;20.55;10.13;;;3.50;99.90;;;;;;5001036;28;20060;-77
2022/01/28 08:43:51;;;;;;;26.45;11.15;;;3.60;99.90;;;;;;5013386;28;20013;-79
2022/01/28 08:46:17;;;;;;;27.70;12.18;;;3.60;99.90;;;;;;5021523;28;20025;-77
2022/01/28 08:48:43;;;;;;;44.75;13.38;;;3.70;99.90;;;;;;4998033;28;20369;-80
2022/01/28 08:51:10;;;;;;;55.20;13.32;;;3.80;99.90;;;;;;5006686;28;20065;-80
2022/01/28 08:53:37;;;;;;;39.30;12.43;;;3.90;99.90;;;;;;4996292;28;20057;-75
2022/01/28 08:56:03;;;;;;;53.33;17.63;;;3.90;99.90;;;;;;4994896;28;20344;-82
2022/01/28 08:58:28;;;;;;;63.75;15.80;;;4.00;99.90;;;;;;4992958;28;20268;-80
2022/01/28 09:00:54;;;;;;;60.08;15.75;;;4.10;99.90;;;;;;4988366;28;20037;-79
2022/01/28 09:03:22;;;;;;;56.55;16.50;;;4.10;99.90;;;;;;4970444;28;20225;-79
2022/01/28 09:05:48;;;;;;;74.28;21.00;;;4.10;99.90;;;;;;5021311;28;20201;-78
2022/01/28 09:08:14;;;;;;;68.53;18.25;;;4.10;99.90;;;;;;4986962;28;20089;-78
2022/01/28 09:10:45;;;;;;;61.38;17.92;;;4.10;99.90;;;;;;4989526;28;20265;-80
2022/01/28 09:13:37;;;;;;;66.57;19.23;;;4.10;99.90;;;;;;5004437;28;20029;-77
2022/01/28 09:15:58;;;;;;;75.43;19.65;;;4.20;99.90;;;;;;4980932;28;20036;-80
2022/01/28 09:18:24;;;;;;;69.07;18.52;;;4.30;99.90;;;;;;4984602;28;20025;-78
2022/01/28 09:20:51;;;;;;;69.88;17.50;;;4.40;99.90;;;;;;5012299;28;20041;-80
2022/01/28 09:23:17;;;;;;;77.95;18.42;;;4.60;99.90;;;;;;5022938;28;20053;-83
2022/01/28 09:25:43;;;;;;;70.05;17.83;;;4.60;99.90;;;;;;5006344;28;20029;-80
2022/01/28 09:28:09;;;;;;;65.32;17.95;;;4.80;99.90;;;;;;5017598;28;20025;-78
2022/01/28 09:30:35;;;;;;;71.10;18.00;;;4.80;99.90;;;;;;5009924;28;20053;-80
2022/01/28 09:33:03;;;;;;;69.45;17.40;;;4.90;99.90;;;;;;5001934;28;20097;-79
2022/01/28 09:35:29;;;;;;;68.13;18.60;;;5.00;99.90;;;;;;5003935;28;20030;-81
2022/01/28 09:37:54;;;;;;;71.97;19.23;;;5.10;99.90;;;;;;4972412;28;20364;-81
2022/01/28 09:40:21;;;;;;;91.55;19.48;;;5.10;99.90;;;;;;5020602;28;20097;-81
2022/01/28 09:42:52;;;;;;;72.00;19.55;;;5.10;99.90;;;;;;5021814;28;20220;-78
2022/01/28 09:45:21;;;;;;;78.53;18.77;;;5.10;99.90;;;;;;4992921;28;20010;-80
2022/01/28 09:47:47;;;;;;;71.57;18.63;;;5.20;99.90;;;;;;4970472;28;20041;-78
2022/01/28 09:50:14;;;;;;;71.93;17.88;;;5.20;99.90;;;;;;5001168;28;20042;-76
2022/01/28 09:52:40;;;;;;;67.32;17.40;;;5.40;99.90;;;;;;5005535;28;20021;-81
2022/01/28 09:55:06;;;;;;;66.47;17.35;;;5.50;99.90;;;;;;5002153;28;20383;-80
2022/01/28 09:57:32;;;;;;;59.08;18.35;;;5.50;99.90;;;;;;4970870;28;20064;-80
2022/01/28 09:59:58;;;;;;;60.20;17.13;;;5.60;99.90;;;;;;4969368;28;20022;-80
2022/01/28 10:03:04;;;;;;;61.03;17.63;;;5.60;99.90;;;;;;4984803;28;20080;-79
2022/01/28 10:05:44;;;;;;;57.75;19.10;;;5.60;99.90;;;;;;4965166;28;20217;-79
2022/01/28 10:08:15;;;;;;;64.00;19.30;;;5.60;99.90;;;;;;4984493;28;20254;-79
2022/01/28 10:11:10;;;;;;;74.63;20.05;;;5.60;99.90;;;;;;4982783;28;20340;-81
2022/01/28 10:13:53;;;;;;;59.13;18.70;;;5.70;99.90;;;;;;4993432;28;20038;-78
2022/01/28 10:16:22;;;;;;;69.50;20.70;;;5.80;99.90;;;;;;4969264;28;20030;-78
2022/01/28 10:19:00;;;;;;;66.15;21.27;;;5.90;99.90;;;;;;4981171;28;20026;-75
2022/01/28 10:21:40;;;;;;;54.60;18.75;;;6.00;99.90;;;;;;4992082;28;20041;-76
2022/01/28 10:24:23;;;;;;;42.65;15.88;;;6.00;99.90;;;;;;4979307;28;20048;-75
2022/01/28 10:27:07;;;;;;;45.03;16.08;;;6.10;99.90;;;;;;5002406;28;20019;-79
2022/01/28 10:29:37;;;;;;;50.28;16.23;;;6.30;99.90;;;;;;4970624;28;20220;-73
2022/01/28 10:32:05;;;;;;;39.10;15.93;;;6.40;99.90;;;;;;4984965;28;20030;-77
2022/01/28 10:34:34;;;;;;;40.40;14.77;;;6.50;99.90;;;;;;4989379;28;20022;-80
2022/01/28 10:37:36;;;;;;;44.67;14.88;;;6.60;99.90;;;;;;4951875;28;20102;-81
2022/01/28 10:40:08;;;;;;;41.85;14.68;;;6.60;99.90;;;;;;4981522;28;20023;-80
2022/01/28 10:42:50;;;;;;;35.40;14.70;;;6.80;99.90;;;;;;5002793;28;20333;-75
2022/01/28 10:45:20;;;;;;;33.63;18.27;;;7.00;99.90;;;;;;4986230;28;20097;-82
2022/01/28 10:47:49;;;;;;;34.58;19.45;;;7.20;99.90;;;;;;4982606;28;20317;-77
2022/01/28 10:50:18;;;;;;;31.42;16.23;;;7.30;99.90;;;;;;4991083;28;20063;-80
2022/01/28 10:52:46;;;;;;;28.60;13.75;;;7.50;99.90;;;;;;4970199;28;20050;-80
2022/01/28 10:55:19;;;;;;;22.27;11.43;;;7.60;99.90;;;;;;5001809;28;20060;-77
2022/01/28 10:58:02;;;;;;;21.05;10.25;;;7.70;99.90;;;;;;5003927;28;20051;-78
2022/01/28 11:00:31;;;;;;;22.05;11.82;;;7.80;99.90;;;;;;4995998;28;20111;-79
2022/01/28 11:03:00;;;;;;;44.25;22.40;;;7.90;99.90;;;;;;4998051;28;20025;-77
2022/01/28 11:05:29;;;;;;;33.45;18.75;;;7.90;99.90;;;;;;4998252;28;20241;-79
2022/01/28 11:07:56;;;;;;;21.92;10.88;;;8.00;99.90;;;;;;4991189;28;20221;-80
2022/01/28 11:10:22;;;;;;;17.23;9.70;;;7.90;99.90;;;;;;5021032;28;20026;-78
2022/01/28 11:12:50;;;;;;;14.77;7.70;;;8.00;99.90;;;;;;4996777;28;20332;-75
2022/01/28 11:15:16;;;;;;;15.32;7.35;;;8.10;99.90;;;;;;5006920;28;20017;-78
2022/01/28 11:17:42;;;;;;;13.38;6.60;;;8.10;99.90;;;;;;5006846;28;20321;-77
2022/01/28 11:20:09;;;;;;;10.43;6.70;;;8.10;99.90;;;;;;5019193;28;20066;-78
2022/01/28 11:22:45;;;;;;;11.45;7.18;;;8.20;99.90;;;;;;5025924;28;20029;-77
2022/01/28 11:25:51;;;;;;;17.75;9.30;;;8.20;99.90;;;;;;5024082;28;20048;-80
2022/01/28 11:28:17;;;;;;;21.25;10.77;;;8.30;99.90;;;;;;4999382;28;20034;-79
2022/01/28 11:30:51;;;;;;;25.73;13.07;;;8.40;99.90;;;;;;5007633;28;20054;-80
2022/01/28 11:33:18;;;;;;;20.70;12.20;;;8.50;99.90;;;;;;5018268;28;20072;-81
2022/01/28 11:36:04;;;;;;;14.60;8.48;;;8.50;99.90;;;;;;5005702;28;20037;-79
2022/01/28 11:38:37;;;;;;;15.48;7.82;;;8.50;99.90;;;;;;5010879;28;20077;-79
2022/01/28 11:41:13;;;;;;;18.60;7.80;;;8.50;99.90;;;;;;5007930;28;20097;-80
2022/01/28 11:43:48;;;;;;;13.68;7.53;;;8.60;99.90;;;;;;4992279;28;20094;-80
2022/01/28 11:46:25;;;;;;;10.80;7.05;;;8.70;99.90;;;;;;5007152;28;20076;-82
2022/01/28 11:49:18;;;;;;;14.30;7.18;;;8.70;99.90;;;;;;5023633;28;20097;-79
2022/01/28 11:51:45;;;;;;;16.02;7.00;;;9.00;99.90;;;;;;4962626;28;20030;-81
2022/01/28 11:54:13;;;;;;;9.63;6.32;;;9.40;99.90;;;;;;4993108;28;20120;-83
2022/01/28 11:57:01;;;;;;;11.20;6.13;;;9.60;99.90;;;;;;4953736;28;20085;-82
2022/01/28 11:59:30;;;;;;;15.45;6.38;;;9.90;99.90;;;;;;5013962;28;20076;-76
2022/01/28 12:02:12;;;;;;;16.35;6.22;;;10.10;99.90;;;;;;4994929;28;20104;-77
2022/01/28 12:04:42;;;;;;;15.20;6.07;;;10.10;99.90;;;;;;4995814;28;20030;-76
2022/01/28 12:07:14;;;;;;;16.15;6.22;;;10.20;99.90;;;;;;4999473;28;20034;-77
2022/01/28 12:09:43;;;;;;;12.60;6.07;;;10.10;99.90;;;;;;5014351;28;20038;-77
2022/01/28 12:12:10;;;;;;;13.52;6.90;;;10.00;99.90;;;;;;4992983;28;20060;-80
2022/01/28 12:14:59;;;;;;;13.95;6.13;;;9.80;99.90;;;;;;4972402;28;20053;-82
2022/01/28 12:17:43;;;;;;;13.43;6.28;;;9.60;99.90;;;;;;5024627;28;20216;-81
2022/01/28 12:20:24;;;;;;;14.07;6.50;;;9.50;99.90;;;;;;4990967;28;20029;-79
2022/01/28 12:23:25;;;;;;;11.95;6.22;;;9.40;99.90;;;;;;5009390;28;20017;-82
2022/01/28 12:25:55;;;;;;;35.88;8.00;;;9.50;99.90;;;;;;4996258;28;20018;-85
2022/01/28 12:28:42;;;;;;;31.52;6.95;;;9.60;99.90;;;;;;5024511;28;20026;-81
2022/01/28 12:31:13;;;;;;;36.85;7.72;;;9.80;99.90;;;;;;5012692;28;20064;-80
2022/01/28 12:33:41;;;;;;;17.40;6.75;;;9.90;99.90;;;;;;5005487;28;20024;-78
2022/01/28 12:36:09;;;;;;;12.57;6.38;;;9.90;99.90;;;;;;4990405;28;20017;-79
2022/01/28 12:38:43;;;;;;;12.63;6.53;;;9.90;99.90;;;;;;5008061;28;20056;-85
2022/01/28 12:41:14;;;;;;;17.23;6.00;;;9.90;99.90;;;;;;4988458;28;20209;-78
2022/01/28 12:43:39;;;;;;;11.68;5.85;;;10.00;99.90;;;;;;4978795;28;20028;-76
2022/01/28 12:46:11;;;;;;;7.03;2.60;;;10.20;99.90;;;;;;5021992;28;20054;-83
2022/01/28 12:48:52;;;;;;;6.38;2.22;;;10.30;99.90;;;;;;4968157;28;20026;-78
2022/01/28 12:51:21;;;;;;;10.18;2.45;;;10.40;99.90;;;;;;4988028;28;20321;-80
2022/01/28 12:53:53;;;;;;;9.13;2.03;;;10.40;99.90;;;;;;5010684;28;20225;-83
2022/01/28 12:56:43;;;;;;;9.05;2.10;;;10.30;99.90;;;;;;4999917;28;20036;-80
2022/01/28 12:59:10;;;;;;;6.80;2.55;;;10.30;99.90;;;;;;4987227;28;20194;-76
2022/01/28 13:01:36;;;;;;;10.10;2.40;;;10.30;99.90;;;;;;4972773;28;20110;-82
2022/01/28 13:04:16;;;;;;;7.38;2.30;;;10.30;99.90;;;;;;5004688;28;20334;-80
2022/01/28 13:07:00;;;;;;;6.70;1.85;;;10.30;99.90;;;;;;4987742;28;20207;-79
2022/01/28 13:09:26;;;;;;;9.90;2.55;;;10.40;99.90;;;;;;4989317;28;20077;-79
2022/01/28 13:11:54;;;;;;;6.65;1.88;;;10.50;99.90;;;;;;4987819;28;20022;-78
2022/01/28 13:14:37;;;;;;;6.75;2.00;;;10.60;99.90;;;;;;4991164;28;20042;-80
2022/01/28 13:17:06;;;;;;;7.30;1.77;;;10.70;99.90;;;;;;4973411;28;20038;-79
2022/01/28 13:19:32;;;;;;;9.55;1.83;;;10.70;99.90;;;;;;4971238;28;20022;-79
2022/01/28 13:21:58;;;;;;;7.10;2.10;;;10.70;99.90;;;;;;5005445;28;20029;-79
2022/01/28 13:24:25;;;;;;;10.75;1.85;;;10.70;99.90;;;;;;5001979;28;20025;-84
2022/01/28 13:27:08;;;;;;;11.77;2.30;;;10.80;99.90;;;;;;5006018;28;20089;-82
2022/01/28 13:29:44;;;;;;;6.97;2.05;;;10.90;99.90;;;;;;5006373;28;20028;-80
2022/01/28 13:32:17;;;;;;;5.97;1.83;;;11.10;99.90;;;;;;5000793;28;20055;-80
2022/01/28 13:34:59;;;;;;;8.43;2.22;;;11.20;99.90;;;;;;5005632;28;20045;-78
2022/01/28 13:37:37;;;;;;;6.80;1.88;;;11.30;99.90;;;;;;5009956;28;20014;-77
2022/01/28 13:40:06;;;;;;;4.90;1.90;;;11.30;99.90;;;;;;5005954;28;20371;-75
2022/01/28 13:42:32;;;;;;;6.22;1.60;;;11.40;99.90;;;;;;4991450;28;20025;-78
2022/01/28 13:45:03;;;;;;;5.95;1.80;;;11.40;99.90;;;;;;5005997;28;20232;-78
2022/01/28 13:47:48;;;;;;;5.60;1.60;;;11.30;99.90;;;;;;5006096;28;20301;-78
2022/01/28 13:50:24;;;;;;;5.40;1.65;;;11.30;99.90;;;;;;5004571;28;20057;-76
2022/01/28 13:53:07;;;;;;;4.30;1.55;;;11.20;99.90;;;;;;5022775;28;20021;-77
2022/01/28 13:55:35;;;;;;;7.00;1.58;;;11.10;99.90;;;;;;5005811;28;20068;-79
2022/01/28 13:58:06;;;;;;;6.25;1.80;;;11.10;99.90;;;;;;5023420;28;20022;-77
2022/01/28 14:00:39;;;;;;;4.97;2.50;;;11.10;99.90;;;;;;4986397;28;20045;-78